createdAt,value
2023-04-12T00:02:16.376Z,100.00
2023-04-12T00:04:42.978Z,100.00
2023-04-12T00:07:10.101Z,100.00
2023-04-12T00:09:37.854Z,100.00
2023-04-12T00:12:04.744Z,100.00
2023-04-12T00:14:31.192Z,100.00
2023-04-12T00:16:57.660Z,100.00
2023-04-12T00:19:27.508Z,100.00
2023-04-12T00:21:54.046Z,100.00
2023-04-12T00:24:20.513Z,100.00
2023-04-12T00:26:46.962Z,100.00
2023-04-12T00:29:13.464Z,100.00
2023-04-12T00:31:41.056Z,100.00
2023-04-12T00:34:07.609Z,100.00
2023-04-12T00:36:34.199Z,100.00
2023-04-12T00:39:00.760Z,100.00
2023-04-12T00:41:29.418Z,100.00
2023-04-12T00:43:56.168Z,100.00
2023-04-12T00:46:23.173Z,100.00
2023-04-12T00:48:51.589Z,100.00
2023-04-12T00:51:22.275Z,100.00
2023-04-12T00:53:49.117Z,100.00
2023-04-12T00:56:15.635Z,100.00
2023-04-12T00:58:42.301Z,100.00
2023-04-12T01:01:10.450Z,100.00
2023-04-12T01:03:43.180Z,100.00
2023-04-12T01:06:27.026Z,100.00
2023-04-12T01:08:57.952Z,100.00
2023-04-12T01:11:56.750Z,100.00
2023-04-12T01:14:35.444Z,100.00
2023-04-12T01:17:07.195Z,100.00
2023-04-12T01:19:46.851Z,100.00
2023-04-12T01:22:38.372Z,100.00
2023-04-12T01:25:24.267Z,100.00
2023-04-12T01:27:54.346Z,100.00
2023-04-12T01:30:21.393Z,100.00
2023-04-12T01:32:53.440Z,100.00
2023-04-12T01:35:22.622Z,100.00
2023-04-12T01:37:49.460Z,100.00
2023-04-12T01:40:18.572Z,100.00
2023-04-12T01:42:45.584Z,100.00
2023-04-12T01:45:12.210Z,100.00
2023-04-12T01:47:39.486Z,100.00
2023-04-12T01:50:25.700Z,100.00
2023-04-12T01:53:18.348Z,100.00
2023-04-12T01:55:48.373Z,100.00
2023-04-12T01:58:21.977Z,100.00
2023-04-12T02:00:49.926Z,100.00
2023-04-12T02:03:17.587Z,100.00
2023-04-12T02:05:44.292Z,100.00
2023-04-12T02:08:11.931Z,100.00
2023-04-12T02:10:40.433Z,100.00
2023-04-12T02:13:06.959Z,100.00
2023-04-12T02:15:34.160Z,100.00
2023-04-12T02:18:01.599Z,100.00
2023-04-12T02:20:28.351Z,100.00
2023-04-12T02:22:55.095Z,100.00
2023-04-12T02:25:21.667Z,100.00
2023-04-12T02:27:48.947Z,100.00
2023-04-12T02:30:16.013Z,100.00
2023-04-12T02:32:45.904Z,100.00
2023-04-12T02:35:24.976Z,100.00
2023-04-12T02:37:57.838Z,100.00
2023-04-12T02:40:28.370Z,100.00
2023-04-12T02:42:55.937Z,100.00
2023-04-12T02:45:24.632Z,100.00
2023-04-12T02:47:52.257Z,100.00
2023-04-12T02:50:23.162Z,100.00
2023-04-12T02:52:57.327Z,100.00
2023-04-12T02:55:23.818Z,100.00
2023-04-12T02:57:50.351Z,100.00
2023-04-12T03:00:17.970Z,100.00
2023-04-12T03:02:50.772Z,100.00
2023-04-12T03:05:22.444Z,100.00
2023-04-12T03:07:50.466Z,100.00
2023-04-12T03:10:21.321Z,100.00
2023-04-12T03:12:54.662Z,100.00
2023-04-12T03:15:23.491Z,100.00
2023-04-12T03:17:52.048Z,100.00
2023-04-12T03:20:24.406Z,100.00
2023-04-12T03:22:59.276Z,100.00
2023-04-12T03:25:27.666Z,100.00
2023-04-12T03:27:58.780Z,100.00
2023-04-12T03:30:37.911Z,100.00
2023-04-12T03:33:04.494Z,100.00
2023-04-12T03:35:31.530Z,100.00
2023-04-12T03:37:58.895Z,100.00
2023-04-12T03:40:25.841Z,100.00
2023-04-12T03:42:58.474Z,100.00
2023-04-12T03:45:26.562Z,100.00
2023-04-12T03:47:55.755Z,100.00
2023-04-12T03:50:22.646Z,100.00
2023-04-12T03:52:55.671Z,100.00
2023-04-12T03:55:27.609Z,100.00
2023-04-12T03:57:56.546Z,100.00
2023-04-12T04:00:26.786Z,100.00
2023-04-12T04:03:07.781Z,100.00
2023-04-12T04:05:42.118Z,100.00
2023-04-12T04:08:09.078Z,100.00
2023-04-12T04:10:52.142Z,100.00
2023-04-12T04:13:20.914Z,100.00
2023-04-12T04:15:52.156Z,100.00
2023-04-12T04:18:18.739Z,100.00
2023-04-12T04:20:46.361Z,100.00
2023-04-12T04:23:13.280Z,100.00
2023-04-12T04:25:41.801Z,100.00
2023-04-12T04:28:11.321Z,100.00
2023-04-12T04:30:40.643Z,100.00
2023-04-12T04:33:18.609Z,100.00
2023-04-12T04:35:45.542Z,100.00
2023-04-12T04:38:26.181Z,100.00
2023-04-12T04:41:03.049Z,100.00
2023-04-12T04:43:46.694Z,100.00
2023-04-12T04:46:25.680Z,100.00
2023-04-12T04:48:55.200Z,100.00
2023-04-12T04:51:21.724Z,100.00
2023-04-12T04:53:48.674Z,100.00
2023-04-12T04:56:17.202Z,100.00
2023-04-12T04:58:46.395Z,100.00
2023-04-12T05:01:13.564Z,100.00
2023-04-12T05:03:41.052Z,100.00
2023-04-12T05:06:08.861Z,100.00
2023-04-12T05:08:37.605Z,100.00
2023-04-12T05:11:04.968Z,100.00
2023-04-12T05:13:31.483Z,100.00
2023-04-12T05:15:58.803Z,100.00
2023-04-12T05:18:25.567Z,100.00
2023-04-12T05:20:53.101Z,100.00
2023-04-12T05:23:19.886Z,100.00
2023-04-12T05:25:48.073Z,100.00
2023-04-12T05:28:16.690Z,100.00
2023-04-12T05:30:44.754Z,100.00
2023-04-12T05:33:14.278Z,100.00
2023-04-12T05:35:44.946Z,100.00
2023-04-12T05:38:11.432Z,100.00
2023-04-12T05:40:38.651Z,100.00
2023-04-12T05:43:08.528Z,100.00
2023-04-12T05:45:35.400Z,100.00
2023-04-12T05:48:02.003Z,100.00
2023-04-12T05:50:29.507Z,100.00
2023-04-12T05:52:56.122Z,100.00
2023-04-12T05:55:29.413Z,100.00
2023-04-12T05:57:55.965Z,100.00
2023-04-12T06:00:23.399Z,100.00
2023-04-12T06:02:50.684Z,100.00
2023-04-12T06:05:18.125Z,100.00
2023-04-12T06:07:49.128Z,100.00
2023-04-12T06:10:17.557Z,100.00
2023-04-12T06:12:47.701Z,100.00
2023-04-12T06:15:14.731Z,100.00
2023-04-12T06:17:41.702Z,100.00
2023-04-12T06:20:09.662Z,100.00
2023-04-12T06:22:38.186Z,100.00
2023-04-12T06:25:06.228Z,100.00
2023-04-12T06:27:32.890Z,100.00
2023-04-12T06:29:59.884Z,100.00
2023-04-12T06:32:27.012Z,100.00
2023-04-12T06:34:54.608Z,100.00
2023-04-12T06:37:21.870Z,100.00
2023-04-12T06:39:48.406Z,100.00
2023-04-12T06:42:15.764Z,100.00
2023-04-12T06:44:42.299Z,100.00
2023-04-12T06:47:09.428Z,100.00
2023-04-12T06:49:36.096Z,100.00
2023-04-12T06:52:02.580Z,100.00
2023-04-12T06:54:29.178Z,100.00
2023-04-12T06:56:57.374Z,100.00
2023-04-12T06:59:23.947Z,100.00
2023-04-12T07:01:50.539Z,100.00
2023-04-12T07:04:17.168Z,100.00
2023-04-12T07:06:43.806Z,100.00
2023-04-12T07:09:10.338Z,100.00
2023-04-12T07:11:36.836Z,100.00
2023-04-12T07:14:03.314Z,100.00
2023-04-12T07:16:31.517Z,100.00
2023-04-12T07:19:00.821Z,100.00
2023-04-12T07:21:27.734Z,100.00
2023-04-12T07:23:55.751Z,100.00
2023-04-12T07:26:23.006Z,100.00
2023-04-12T07:28:49.598Z,100.00
2023-04-12T07:31:16.129Z,100.00
2023-04-12T07:33:43.269Z,100.00
2023-04-12T07:36:11.076Z,100.00
2023-04-12T07:38:37.619Z,100.00
2023-04-12T07:41:04.498Z,100.00
2023-04-12T07:43:31.184Z,100.00
2023-04-12T07:45:58.719Z,100.00
2023-04-12T07:48:25.452Z,100.00
2023-04-12T07:50:51.995Z,100.00
2023-04-12T07:53:28.913Z,100.00
2023-04-12T07:55:56.053Z,100.00
2023-04-12T07:58:24.197Z,100.00
2023-04-12T08:00:51.217Z,100.00
2023-04-12T08:03:18.680Z,100.00
2023-04-12T08:05:45.613Z,100.00
2023-04-12T08:08:22.770Z,100.00
2023-04-12T08:10:51.051Z,100.00
2023-04-12T08:13:17.934Z,100.00
2023-04-12T08:15:44.580Z,100.00
2023-04-12T08:18:14.168Z,100.00
2023-04-12T08:20:47.252Z,100.00
2023-04-12T08:23:16.478Z,100.00
2023-04-12T08:25:42.928Z,100.00
2023-04-12T08:28:09.389Z,100.00
2023-04-12T08:30:36.701Z,100.00
2023-04-12T08:33:03.249Z,100.00
2023-04-12T08:35:29.863Z,100.00
2023-04-12T08:37:56.769Z,100.00
2023-04-12T08:40:23.387Z,100.00
2023-04-12T08:42:52.796Z,100.00
2023-04-12T08:45:20.302Z,100.00
2023-04-12T08:47:46.797Z,100.00
2023-04-12T08:50:14.175Z,100.00
2023-04-12T08:52:41.825Z,100.00
2023-04-12T08:55:10.127Z,100.00
2023-04-12T08:57:39.705Z,100.00
2023-04-12T09:00:08.355Z,100.00
2023-04-12T09:02:41.388Z,100.00
2023-04-12T09:05:09.607Z,100.00
2023-04-12T09:07:36.226Z,100.00
2023-04-12T09:10:02.767Z,100.00
2023-04-12T09:12:29.278Z,100.00
2023-04-12T09:15:13.404Z,100.00
2023-04-12T09:17:41.663Z,100.00
2023-04-12T09:20:17.254Z,100.00
2023-04-12T09:22:46.143Z,100.00
2023-04-12T09:25:14.135Z,100.00
2023-04-12T09:27:51.392Z,100.00
2023-04-12T09:30:19.709Z,100.00
2023-04-12T09:32:49.297Z,100.00
2023-04-12T09:35:16.200Z,100.00
2023-04-12T09:37:42.985Z,100.00
2023-04-12T09:40:10.747Z,100.00
2023-04-12T09:42:53.740Z,100.00
2023-04-12T09:45:23.904Z,100.00
2023-04-12T09:47:51.088Z,100.00
2023-04-12T09:50:26.495Z,100.00
2023-04-12T09:52:53.927Z,100.00
2023-04-12T09:55:25.651Z,100.00
2023-04-12T09:57:53.861Z,100.00
2023-04-12T10:00:23.208Z,100.00
2023-04-12T10:02:52.511Z,100.00
2023-04-12T10:05:22.062Z,100.00
2023-04-12T10:07:50.148Z,100.00
2023-04-12T10:10:19.072Z,100.00
2023-04-12T10:12:47.657Z,100.00
2023-04-12T10:15:17.529Z,100.00
2023-04-12T10:17:54.397Z,100.00
2023-04-12T10:20:24.701Z,100.00
2023-04-12T10:22:53.341Z,100.00
2023-04-12T10:25:25.577Z,100.00
2023-04-12T10:27:53.091Z,100.00
2023-04-12T10:30:24.209Z,100.00
2023-04-12T10:33:12.695Z,100.00
2023-04-12T10:36:10.675Z,100.00
2023-04-12T10:38:47.784Z,100.00
2023-04-12T10:41:21.282Z,100.00
2023-04-12T10:43:49.532Z,100.00
2023-04-12T10:46:40.183Z,100.00
2023-04-12T10:49:11.040Z,100.00
2023-04-12T10:51:37.922Z,100.00
2023-04-12T10:54:08.184Z,100.00
2023-04-12T10:56:37.615Z,100.00
2023-04-12T10:59:16.705Z,100.00
2023-04-12T11:02:07.381Z,100.00
2023-04-12T11:04:35.192Z,100.00
2023-04-12T11:07:11.973Z,100.00
2023-04-12T11:09:42.684Z,100.00
2023-04-12T11:12:15.985Z,100.00
2023-04-12T11:14:47.675Z,100.00
2023-04-12T11:17:14.666Z,100.00
2023-04-12T11:19:46.140Z,100.00
2023-04-12T11:22:15.008Z,100.00
2023-04-12T11:24:48.012Z,100.00
2023-04-12T11:27:16.515Z,100.00
2023-04-12T11:29:44.021Z,100.00
2023-04-12T11:32:15.522Z,100.00
2023-04-12T11:34:47.415Z,100.00
2023-04-12T11:37:14.529Z,100.00
2023-04-12T11:39:46.086Z,100.00
2023-04-12T11:42:15.660Z,100.00
2023-04-12T11:44:56.325Z,100.00
2023-04-12T11:47:26.773Z,100.00
2023-04-12T11:49:55.676Z,100.00
2023-04-12T11:52:29.107Z,100.00
2023-04-12T11:54:58.729Z,100.00
2023-04-12T11:57:25.644Z,100.00
2023-04-12T11:59:52.704Z,100.00
2023-04-12T12:02:22.751Z,100.00
2023-04-12T12:04:50.860Z,100.00
2023-04-12T12:07:18.165Z,100.00
2023-04-12T12:09:46.501Z,100.00
2023-04-12T12:12:14.467Z,100.00
2023-04-12T12:14:44.325Z,100.00
2023-04-12T12:17:15.906Z,100.00
2023-04-12T12:19:45.377Z,100.00
2023-04-12T12:22:22.265Z,100.00
2023-04-12T12:24:55.609Z,100.00
2023-04-12T12:27:50.838Z,100.00
2023-04-12T12:30:18.857Z,100.00
2023-04-12T12:32:45.436Z,100.00
2023-04-12T12:35:13.941Z,100.00
2023-04-12T12:37:52.287Z,100.00
2023-04-12T12:40:21.603Z,100.00
2023-04-12T12:42:56.557Z,100.00
2023-04-12T12:45:25.071Z,100.00
2023-04-12T12:47:59.850Z,100.00
2023-04-12T12:50:28.271Z,100.00
2023-04-12T12:52:55.662Z,100.00
2023-04-12T12:55:23.690Z,100.00
2023-04-12T12:58:06.642Z,100.00
2023-04-12T13:00:34.601Z,100.00
2023-04-12T13:03:01.552Z,100.00
2023-04-12T13:05:28.538Z,100.00
2023-04-12T13:07:55.073Z,100.00
2023-04-12T13:10:21.566Z,100.00
2023-04-12T13:12:48.116Z,100.00
2023-04-12T13:15:22.291Z,100.00
2023-04-12T13:17:52.540Z,100.00
2023-04-12T13:20:19.373Z,100.00
2023-04-12T13:22:45.959Z,100.00
2023-04-12T13:25:12.464Z,100.00
2023-04-12T13:27:38.949Z,100.00
2023-04-12T13:30:06.288Z,100.00
2023-04-12T13:32:33.050Z,100.00
2023-04-12T13:34:59.631Z,100.00
2023-04-12T13:37:26.211Z,100.00
2023-04-12T13:39:52.857Z,100.00
2023-04-12T13:42:19.987Z,100.00
2023-04-12T13:44:48.557Z,100.00
2023-04-12T13:47:18.246Z,100.00
2023-04-12T13:49:44.928Z,100.00
2023-04-12T13:52:12.387Z,100.00
2023-04-12T13:54:39.266Z,100.00
2023-04-12T13:57:05.965Z,100.00
2023-04-12T13:59:32.478Z,100.00
2023-04-12T14:02:00.117Z,100.00
2023-04-12T14:04:31.349Z,100.00
2023-04-12T14:06:58.932Z,100.00
2023-04-12T14:09:27.168Z,100.00
2023-04-12T14:11:56.026Z,100.00
2023-04-12T14:14:23.495Z,100.00
2023-04-12T14:16:53.307Z,100.00
2023-04-12T14:19:22.985Z,100.00
2023-04-12T14:21:50.379Z,100.00
2023-04-12T14:24:17.743Z,100.00
2023-04-12T14:26:45.226Z,100.00
2023-04-12T14:29:12.230Z,100.00
2023-04-12T14:31:38.978Z,100.00
2023-04-12T14:34:06.228Z,100.00
2023-04-12T14:36:33.365Z,100.00
2023-04-12T14:39:01.489Z,100.00
2023-04-12T14:41:28.351Z,100.00
2023-04-12T14:43:54.850Z,100.00
2023-04-12T14:46:21.476Z,100.00
2023-04-12T14:48:47.958Z,100.00
2023-04-12T14:51:14.456Z,100.00
2023-04-12T14:53:42.617Z,100.00
2023-04-12T14:56:25.295Z,100.00
2023-04-12T14:58:55.191Z,100.00
2023-04-12T15:01:23.790Z,100.00
2023-04-12T15:03:51.930Z,100.00
2023-04-12T15:06:19.299Z,100.00
2023-04-12T15:08:46.660Z,100.00
2023-04-12T15:11:13.423Z,100.00
2023-04-12T15:13:41.670Z,100.00
2023-04-12T15:16:09.196Z,100.00
2023-04-12T15:18:39.366Z,100.00
2023-04-12T15:21:08.245Z,100.00
2023-04-12T15:23:35.629Z,100.00
2023-04-12T15:26:04.920Z,100.00
2023-04-12T15:28:32.776Z,100.00
2023-04-12T15:30:59.588Z,100.00
2023-04-12T15:33:26.168Z,100.00
2023-04-12T15:35:56.453Z,100.00
2023-04-12T15:38:24.600Z,100.00
2023-04-12T15:40:55.793Z,100.00
2023-04-12T15:43:23.247Z,100.00
2023-04-12T15:45:53.125Z,100.00
2023-04-12T15:48:20.763Z,100.00
2023-04-12T15:50:53.299Z,100.00
2023-04-12T15:53:28.877Z,100.00
2023-04-12T15:56:00.112Z,100.00
2023-04-12T15:58:29.277Z,100.00
2023-04-12T16:00:56.139Z,100.00
2023-04-12T16:03:23.607Z,99.66
2023-04-12T16:05:54.073Z,100.00
2023-04-12T16:08:21.917Z,100.00
2023-04-12T16:10:49.464Z,100.00
2023-04-12T16:13:16.178Z,99.26
2023-04-12T16:15:42.738Z,99.17
2023-04-12T16:18:09.567Z,99.03
2023-04-12T16:20:36.266Z,96.54
2023-04-12T16:23:03.725Z,98.53
2023-04-12T16:25:30.490Z,98.81
2023-04-12T16:27:57.531Z,95.61
2023-04-12T16:30:24.364Z,94.46
2023-04-12T16:32:51.235Z,96.21
2023-04-12T16:35:18.049Z,95.92
2023-04-12T16:37:45.786Z,91.01
2023-04-12T16:40:12.844Z,93.03
2023-04-12T16:42:43.850Z,92.22
2023-04-12T16:45:15.259Z,91.21
2023-04-12T16:47:50.854Z,91.49
2023-04-12T16:50:20.957Z,92.34
2023-04-12T16:52:49.390Z,91.00
2023-04-12T16:55:15.899Z,92.45
2023-04-12T16:57:44.720Z,90.70
2023-04-12T17:00:26.933Z,92.08
2023-04-12T17:02:54.109Z,92.09
2023-04-12T17:05:22.404Z,91.69
2023-04-12T17:07:51.327Z,90.70
2023-04-12T17:10:19.763Z,92.78
2023-04-12T17:12:48.265Z,91.87
2023-04-12T17:15:17.176Z,92.35
2023-04-12T17:17:46.072Z,92.73
2023-04-12T17:20:12.821Z,89.69
2023-04-12T17:22:39.256Z,89.91
2023-04-12T17:25:06.790Z,92.04
2023-04-12T17:27:37.413Z,92.68
2023-04-12T17:30:05.397Z,93.97
2023-04-12T17:32:32.823Z,95.51
2023-04-12T17:34:59.694Z,95.77
2023-04-12T17:37:27.745Z,94.62
2023-04-12T17:39:54.344Z,95.14
2023-04-12T17:42:21.728Z,94.35
2023-04-12T17:44:48.301Z,94.88
2023-04-12T17:47:15.388Z,98.32
2023-04-12T17:49:42.686Z,97.64
2023-04-12T17:52:10.906Z,97.90
2023-04-12T17:54:38.405Z,98.56
2023-04-12T17:57:05.456Z,95.46
2023-04-12T17:59:32.027Z,96.07
2023-04-12T18:02:01.807Z,93.88
2023-04-12T18:04:29.473Z,92.37
2023-04-12T18:06:57.158Z,91.98
2023-04-12T18:09:24.688Z,89.31
2023-04-12T18:11:51.523Z,85.01
2023-04-12T18:14:20.255Z,83.77
2023-04-12T18:16:47.147Z,81.52
2023-04-12T18:19:16.254Z,85.67
2023-04-12T18:21:48.140Z,97.06
2023-04-12T18:24:16.218Z,100.00
2023-04-12T18:26:45.973Z,100.00
2023-04-12T18:29:14.440Z,100.00
2023-04-12T18:31:41.094Z,100.00
2023-04-12T18:34:11.119Z,100.00
2023-04-12T18:36:38.095Z,100.00
2023-04-12T18:39:05.665Z,100.00
2023-04-12T18:41:32.637Z,100.00
2023-04-12T18:43:59.260Z,100.00
2023-04-12T18:46:31.909Z,100.00
2023-04-12T18:48:58.673Z,100.00
2023-04-12T18:51:25.123Z,100.00
2023-04-12T18:53:51.603Z,100.00
2023-04-12T18:56:23.134Z,100.00
2023-04-12T18:58:56.189Z,100.00
2023-04-12T19:01:23.474Z,100.00
2023-04-12T19:03:50.277Z,100.00
2023-04-12T19:06:17.048Z,100.00
2023-04-12T19:08:43.864Z,100.00
2023-04-12T19:11:10.355Z,100.00
2023-04-12T19:13:37.171Z,100.00
2023-04-12T19:16:07.312Z,100.00
2023-04-12T19:18:34.242Z,100.00
2023-04-12T19:21:01.946Z,100.00
2023-04-12T19:23:28.827Z,100.00
2023-04-12T19:25:56.720Z,100.00
2023-04-12T19:28:23.180Z,100.00
2023-04-12T19:30:49.742Z,100.00
2023-04-12T19:33:16.426Z,100.00
2023-04-12T19:35:42.859Z,100.00
2023-04-12T19:38:09.850Z,100.00
2023-04-12T19:40:36.679Z,100.00
2023-04-12T19:43:04.516Z,100.00
2023-04-12T19:45:31.253Z,100.00
2023-04-12T19:47:57.843Z,100.00
2023-04-12T19:50:24.935Z,100.00
2023-04-12T19:52:51.757Z,100.00
2023-04-12T19:55:21.327Z,100.00
2023-04-12T19:57:47.889Z,100.00
2023-04-12T20:00:22.670Z,100.00
2023-04-12T20:02:50.607Z,100.00
2023-04-12T20:05:17.878Z,100.00
2023-04-12T20:07:45.180Z,100.00
2023-04-12T20:10:13.075Z,100.00
2023-04-12T20:12:39.819Z,100.00
2023-04-12T20:15:11.686Z,100.00
2023-04-12T20:17:42.697Z,100.00
2023-04-12T20:20:10.930Z,100.00
2023-04-12T20:22:39.195Z,100.00
2023-04-12T20:25:05.984Z,100.00
2023-04-12T20:27:33.625Z,100.00
2023-04-12T20:30:00.677Z,100.00
2023-04-12T20:32:27.257Z,100.00
2023-04-12T20:34:54.692Z,100.00
2023-04-12T20:37:21.143Z,100.00
2023-04-12T20:39:47.692Z,100.00
2023-04-12T20:42:16.366Z,100.00
2023-04-12T20:44:42.891Z,100.00
2023-04-12T20:47:09.947Z,100.00
2023-04-12T20:49:36.390Z,100.00
2023-04-12T20:52:03.006Z,100.00
2023-04-12T20:54:30.147Z,100.00
2023-04-12T20:56:58.833Z,100.00
2023-04-12T20:59:29.491Z,100.00
2023-04-12T21:01:57.254Z,100.00
2023-04-12T21:04:25.400Z,100.00
2023-04-12T21:06:55.352Z,100.00
2023-04-12T21:09:23.363Z,100.00
2023-04-12T21:11:51.000Z,100.00
2023-04-12T21:14:17.476Z,100.00
2023-04-12T21:16:44.041Z,100.00
2023-04-12T21:19:10.505Z,100.00
2023-04-12T21:21:37.016Z,100.00
2023-04-12T21:24:03.838Z,100.00
2023-04-12T21:26:31.702Z,100.00
2023-04-12T21:28:59.521Z,100.00
2023-04-12T21:31:26.145Z,100.00
2023-04-12T21:33:53.254Z,100.00
2023-04-12T21:36:19.893Z,100.00
2023-04-12T21:38:46.619Z,100.00
2023-04-12T21:41:13.739Z,100.00
2023-04-12T21:43:40.753Z,100.00
2023-04-12T21:46:11.829Z,100.00
2023-04-12T21:48:38.322Z,100.00
2023-04-12T21:51:05.103Z,100.00
2023-04-12T21:53:31.715Z,100.00
2023-04-12T21:55:58.928Z,100.00
2023-04-12T21:58:25.708Z,100.00
2023-04-12T22:00:52.553Z,100.00
2023-04-12T22:03:19.256Z,100.00
2023-04-12T22:05:51.142Z,100.00
2023-04-12T22:08:20.632Z,100.00
2023-04-12T22:10:49.932Z,100.00
2023-04-12T22:13:16.415Z,100.00
2023-04-12T22:15:43.740Z,98.63
2023-04-12T22:18:10.513Z,99.75
2023-04-12T22:20:36.942Z,99.75
2023-04-12T22:23:03.402Z,100.00
2023-04-12T22:25:30.080Z,99.78
2023-04-12T22:27:58.193Z,98.93
2023-04-12T22:30:25.240Z,99.21
2023-04-12T22:32:52.666Z,97.95
2023-04-12T22:35:20.543Z,98.25
2023-04-12T22:37:49.692Z,96.82
2023-04-12T22:40:16.532Z,96.38
2023-04-12T22:42:49.018Z,95.83
2023-04-12T22:45:16.832Z,97.97
2023-04-12T22:47:44.261Z,95.49
2023-04-12T22:50:12.646Z,95.78
2023-04-12T22:52:40.272Z,96.38
2023-04-12T22:55:09.100Z,95.68
2023-04-12T22:57:36.361Z,97.56
2023-04-12T23:00:05.726Z,98.31
2023-04-12T23:02:33.558Z,98.57
2023-04-12T23:05:00.451Z,99.74
2023-04-12T23:07:29.838Z,97.81
2023-04-12T23:09:57.195Z,98.17
2023-04-12T23:12:24.306Z,98.82
2023-04-12T23:14:51.027Z,98.11
2023-04-12T23:17:19.704Z,99.47
2023-04-12T23:19:46.451Z,100.00
2023-04-12T23:22:22.413Z,98.79
2023-04-12T23:24:50.525Z,98.88
2023-04-12T23:27:17.016Z,100.00
2023-04-12T23:29:43.467Z,99.03
2023-04-12T23:32:10.378Z,97.91
2023-04-12T23:34:36.881Z,99.58
2023-04-12T23:37:03.341Z,99.70
2023-04-12T23:39:31.207Z,99.26
2023-04-12T23:41:57.667Z,99.33
2023-04-12T23:44:24.930Z,100.00
2023-04-12T23:46:51.473Z,97.66
2023-04-12T23:49:17.964Z,98.16
2023-04-12T23:51:44.532Z,96.21
2023-04-12T23:54:11.163Z,96.86
2023-04-12T23:56:37.663Z,95.86
2023-04-12T23:59:04.119Z,95.34
